KLM312 LFBH-EIDW
Flight info
| Callsign | KLM312 |
|---|---|
| Flight time | 1h 30m |
| Altitude | 40000 |
| Route | LUSON DCT TIRAV UT183 BAGAD DCT MUREL DCT NOZHU DCT SHIRI DCT UNFIT DCT PENWU DCT NICXI/N0358F240 M17 VATRY |
| Aircraft | B736/M-SDE2E3FGHIRWXY/LB1 |
Departure
| Time | 2026-05-05 10:31 |
|---|---|
| Airport | La Rochelle Île de Ré Airport (LFBH) |
Arrival
| Time | 2026-05-05 12:01 |
|---|---|
| Airport | Dublin Airport (EIDW) |
| Time | Latitude | Longitude | Altitude | Speed | Heading |
|---|---|---|---|---|---|
| 2026-05-05 10:06 | 46.17634 | -1.19450 | 76 ft | 0 kts | 299° |
| 2026-05-05 10:22 | 46.17630 | -1.19451 | 76 ft | 4 kts | 249° |
| 2026-05-05 10:23 | 46.17630 | -1.19454 | 87 ft | 4 kts | 213° |
| 2026-05-05 10:23 | 46.17649 | -1.19438 | 76 ft | 4 kts | 210° |
| 2026-05-05 10:23 | 46.17671 | -1.19416 | 76 ft | 4 kts | 223° |
| 2026-05-05 10:23 | 46.17686 | -1.19387 | 76 ft | 4 kts | 259° |
| 2026-05-05 10:24 | 46.17687 | -1.19369 | 76 ft | 1 kts | 272° |
| 2026-05-05 10:24 | 46.17687 | -1.19367 | 76 ft | 0 kts | 272° |
| 2026-05-05 10:26 | 46.17687 | -1.19368 | 76 ft | 0 kts | 273° |
| 2026-05-05 10:26 | 46.17688 | -1.19386 | 68 ft | 4 kts | 274° |
| 2026-05-05 10:26 | 46.17691 | -1.19441 | 76 ft | 8 kts | 274° |
| 2026-05-05 10:26 | 46.17707 | -1.19523 | 71 ft | 9 kts | 317° |
| 2026-05-05 10:27 | 46.17768 | -1.19531 | 68 ft | 9 kts | 5° |
| 2026-05-05 10:27 | 46.17828 | -1.19525 | 65 ft | 9 kts | 3° |
| 2026-05-05 10:27 | 46.17887 | -1.19518 | 74 ft | 8 kts | 15° |
| 2026-05-05 10:27 | 46.17916 | -1.19451 | 71 ft | 9 kts | 86° |
| 2026-05-05 10:28 | 46.17914 | -1.19340 | 75 ft | 14 kts | 90° |
| 2026-05-05 10:28 | 46.17908 | -1.19176 | 68 ft | 19 kts | 93° |
| 2026-05-05 10:28 | 46.17902 | -1.18967 | 77 ft | 22 kts | 92° |
| 2026-05-05 10:28 | 46.17892 | -1.18737 | 71 ft | 23 kts | 94° |
| 2026-05-05 10:29 | 46.17888 | -1.18511 | 81 ft | 22 kts | 91° |
| 2026-05-05 10:29 | 46.17881 | -1.18305 | 82 ft | 17 kts | 93° |
| 2026-05-05 10:29 | 46.17852 | -1.18233 | 86 ft | 8 kts | 118° |
| 2026-05-05 10:29 | 46.17879 | -1.18217 | 83 ft | 7 kts | 297° |
| 2026-05-05 10:30 | 46.17885 | -1.18290 | 82 ft | 8 kts | 269° |
| 2026-05-05 10:30 | 46.17886 | -1.18416 | 82 ft | 29 kts | 272° |
| 2026-05-05 10:30 | 46.17909 | -1.19077 | 76 ft | 100 kts | 272° |
| 2026-05-05 10:30 | 46.17944 | -1.20328 | 166 ft | 141 kts | 274° |
| 2026-05-05 10:31 | 46.17934 | -1.21754 | 784 ft | 142 kts | 269° |
| 2026-05-05 10:31 | 46.18101 | -1.23176 | 1335 ft | 151 kts | 292° |
| 2026-05-05 10:31 | 46.18513 | -1.24635 | 1825 ft | 168 kts | 297° |
| 2026-05-05 10:31 | 46.19501 | -1.25781 | 2113 ft | 207 kts | 341° |
| 2026-05-05 10:32 | 46.20489 | -1.26068 | 2323 ft | 230 kts | 347° |
| 2026-05-05 10:32 | 46.22726 | -1.26648 | 3176 ft | 252 kts | 347° |
| 2026-05-05 10:32 | 46.23873 | -1.26960 | 3789 ft | 254 kts | 347° |
| 2026-05-05 10:32 | 46.25621 | -1.27452 | 4738 ft | 258 kts | 346° |
| 2026-05-05 10:33 | 46.27397 | -1.27973 | 5645 ft | 262 kts | 346° |
| 2026-05-05 10:33 | 46.29202 | -1.28519 | 6568 ft | 267 kts | 346° |
| 2026-05-05 10:33 | 46.31028 | -1.29081 | 7510 ft | 270 kts | 346° |
| 2026-05-05 10:33 | 46.32883 | -1.29659 | 8502 ft | 275 kts | 346° |
| 2026-05-05 10:34 | 46.34763 | -1.30249 | 9591 ft | 278 kts | 346° |
| 2026-05-05 10:34 | 46.36684 | -1.30856 | 10460 ft | 290 kts | 346° |
| 2026-05-05 10:34 | 46.38738 | -1.31509 | 10843 ft | 317 kts | 346° |
| 2026-05-05 10:34 | 46.40921 | -1.32203 | 11683 ft | 325 kts | 346° |
| 2026-05-05 10:35 | 46.43155 | -1.32914 | 12672 ft | 331 kts | 347° |
| 2026-05-05 10:35 | 46.45396 | -1.33629 | 13636 ft | 338 kts | 347° |
| 2026-05-05 10:35 | 46.47726 | -1.34372 | 14533 ft | 345 kts | 347° |
| 2026-05-05 10:35 | 46.50076 | -1.35126 | 15419 ft | 351 kts | 347° |
| 2026-05-05 10:36 | 46.52475 | -1.36030 | 16306 ft | 357 kts | 345° |
| 2026-05-05 10:36 | 46.54888 | -1.37028 | 17221 ft | 363 kts | 344° |
| 2026-05-05 10:36 | 46.57327 | -1.38068 | 18135 ft | 370 kts | 342° |
| 2026-05-05 10:36 | 46.59681 | -1.39647 | 18891 ft | 378 kts | 330° |
| 2026-05-05 10:37 | 46.61830 | -1.41894 | 19748 ft | 383 kts | 319° |
| 2026-05-05 10:37 | 46.63743 | -1.44624 | 20551 ft | 389 kts | 314° |
| 2026-05-05 10:37 | 46.65634 | -1.47516 | 21280 ft | 397 kts | 314° |
| 2026-05-05 10:37 | 46.67535 | -1.50474 | 22048 ft | 404 kts | 313° |
| 2026-05-05 10:38 | 46.69459 | -1.53465 | 22816 ft | 411 kts | 314° |
| 2026-05-05 10:38 | 46.71448 | -1.56536 | 23574 ft | 417 kts | 314° |
| 2026-05-05 10:38 | 46.73470 | -1.59639 | 24224 ft | 423 kts | 314° |
| 2026-05-05 10:38 | 46.75506 | -1.62752 | 24885 ft | 428 kts | 314° |
| 2026-05-05 10:39 | 46.77567 | -1.65895 | 25615 ft | 431 kts | 315° |
| 2026-05-05 10:39 | 46.79649 | -1.69071 | 26314 ft | 435 kts | 315° |
| 2026-05-05 10:39 | 46.81758 | -1.72290 | 26909 ft | 441 kts | 315° |
| 2026-05-05 10:39 | 46.83896 | -1.75556 | 27492 ft | 447 kts | 315° |
| 2026-05-05 10:40 | 46.86044 | -1.78844 | 28083 ft | 452 kts | 315° |
| 2026-05-05 10:40 | 46.88222 | -1.82182 | 28658 ft | 457 kts | 315° |
| 2026-05-05 10:40 | 46.90440 | -1.85588 | 29242 ft | 462 kts | 315° |
| 2026-05-05 10:40 | 46.92654 | -1.88991 | 29803 ft | 466 kts | 315° |
| 2026-05-05 10:41 | 46.94899 | -1.92447 | 30274 ft | 471 kts | 315° |
| 2026-05-05 10:41 | 46.97165 | -1.95939 | 30745 ft | 473 kts | 315° |
| 2026-05-05 10:41 | 46.99440 | -1.99449 | 31242 ft | 475 kts | 314° |
| 2026-05-05 10:41 | 47.01717 | -2.02952 | 31767 ft | 476 kts | 315° |
| 2026-05-05 10:42 | 47.06351 | -2.09857 | 33007 ft | 471 kts | 315° |
| 2026-05-05 10:42 | 47.08644 | -2.13237 | 33755 ft | 465 kts | 315° |
| 2026-05-05 10:42 | 47.10910 | -2.16582 | 34343 ft | 461 kts | 314° |
| 2026-05-05 10:43 | 47.13163 | -2.19921 | 34776 ft | 460 kts | 314° |
| 2026-05-05 10:43 | 47.15415 | -2.23271 | 35137 ft | 461 kts | 314° |
| 2026-05-05 10:43 | 47.17666 | -2.26629 | 35512 ft | 461 kts | 314° |
| 2026-05-05 10:43 | 47.19915 | -2.29993 | 35920 ft | 461 kts | 314° |
| 2026-05-05 10:44 | 47.22141 | -2.33329 | 36338 ft | 460 kts | 314° |
| 2026-05-05 10:44 | 47.24392 | -2.36706 | 36796 ft | 458 kts | 314° |
| 2026-05-05 10:44 | 47.26614 | -2.40043 | 37217 ft | 456 kts | 313° |
| 2026-05-05 10:44 | 47.28845 | -2.43398 | 37556 ft | 457 kts | 313° |
| 2026-05-05 10:45 | 47.31064 | -2.46739 | 37875 ft | 457 kts | 313° |
| 2026-05-05 10:45 | 47.33284 | -2.50085 | 38302 ft | 455 kts | 313° |
| 2026-05-05 10:45 | 47.35488 | -2.53411 | 38729 ft | 453 kts | 313° |
| 2026-05-05 10:45 | 47.37690 | -2.56739 | 39000 ft | 452 kts | 313° |
| 2026-05-05 10:46 | 47.39882 | -2.60058 | 39274 ft | 452 kts | 313° |
| 2026-05-05 10:46 | 47.42069 | -2.63370 | 39521 ft | 452 kts | 313° |
| 2026-05-05 10:46 | 47.44267 | -2.66706 | 39820 ft | 451 kts | 313° |
| 2026-05-05 10:47 | 47.48657 | -2.73380 | 39915 ft | 457 kts | 313° |
| 2026-05-05 10:47 | 47.53071 | -2.80104 | 39910 ft | 452 kts | 313° |
| 2026-05-05 10:48 | 47.57655 | -2.86318 | 39929 ft | 450 kts | 326° |
| 2026-05-05 10:48 | 47.63361 | -2.90200 | 39921 ft | 453 kts | 344° |
| 2026-05-05 10:49 | 47.69485 | -2.92467 | 39929 ft | 455 kts | 346° |
| 2026-05-05 10:49 | 47.75666 | -2.94656 | 39930 ft | 455 kts | 346° |
| 2026-05-05 10:50 | 47.81816 | -2.96903 | 39923 ft | 455 kts | 345° |
| 2026-05-05 10:50 | 47.87962 | -2.99202 | 39927 ft | 455 kts | 345° |
| 2026-05-05 10:51 | 47.94082 | -3.01513 | 39933 ft | 455 kts | 345° |
| 2026-05-05 10:51 | 48.00234 | -3.03841 | 39936 ft | 455 kts | 345° |
| 2026-05-05 10:52 | 48.06358 | -3.06162 | 39922 ft | 455 kts | 345° |
| 2026-05-05 10:52 | 48.12483 | -3.08489 | 39938 ft | 452 kts | 345° |
| 2026-05-05 10:53 | 48.18585 | -3.10811 | 39937 ft | 451 kts | 345° |
| 2026-05-05 10:53 | 48.24653 | -3.13126 | 39944 ft | 449 kts | 345° |
| 2026-05-05 10:54 | 48.30679 | -3.15431 | 39954 ft | 449 kts | 345° |
| 2026-05-05 10:54 | 48.36752 | -3.17760 | 39943 ft | 448 kts | 345° |
| 2026-05-05 10:55 | 48.42778 | -3.20077 | 39947 ft | 447 kts | 345° |
| 2026-05-05 10:55 | 48.48803 | -3.22399 | 39951 ft | 447 kts | 345° |
| 2026-05-05 10:56 | 48.54829 | -3.24727 | 39957 ft | 447 kts | 345° |
| 2026-05-05 10:56 | 48.60837 | -3.27054 | 39965 ft | 447 kts | 345° |
| 2026-05-05 10:57 | 48.66832 | -3.29382 | 39962 ft | 447 kts | 345° |
| 2026-05-05 10:57 | 48.72878 | -3.31735 | 39966 ft | 447 kts | 345° |
| 2026-05-05 10:58 | 48.78913 | -3.34090 | 39969 ft | 447 kts | 345° |
| 2026-05-05 10:58 | 48.84938 | -3.36446 | 39970 ft | 448 kts | 345° |
| 2026-05-05 10:59 | 48.90987 | -3.38817 | 39963 ft | 449 kts | 345° |
| 2026-05-05 10:59 | 48.97042 | -3.41198 | 39970 ft | 449 kts | 345° |
| 2026-05-05 11:00 | 49.03087 | -3.43581 | 39973 ft | 450 kts | 345° |
| 2026-05-05 11:00 | 49.09160 | -3.45980 | 39967 ft | 451 kts | 345° |
| 2026-05-05 11:01 | 49.15226 | -3.48381 | 39977 ft | 450 kts | 345° |
| 2026-05-05 11:01 | 49.21300 | -3.50794 | 39973 ft | 450 kts | 345° |
| 2026-05-05 11:02 | 49.27363 | -3.53208 | 39973 ft | 449 kts | 345° |
| 2026-05-05 11:02 | 49.33378 | -3.55725 | 39974 ft | 448 kts | 341° |
| 2026-05-05 11:03 | 49.39224 | -3.59007 | 39986 ft | 448 kts | 339° |
| 2026-05-05 11:03 | 49.45040 | -3.62429 | 39982 ft | 447 kts | 339° |
| 2026-05-05 11:04 | 49.50859 | -3.65792 | 39987 ft | 447 kts | 340° |
| 2026-05-05 11:04 | 49.56685 | -3.69128 | 39991 ft | 446 kts | 340° |
| 2026-05-05 11:05 | 49.62507 | -3.72470 | 39995 ft | 446 kts | 340° |
| 2026-05-05 11:05 | 49.68366 | -3.75525 | 39985 ft | 445 kts | 348° |
| 2026-05-05 11:06 | 49.74525 | -3.76118 | 40005 ft | 444 kts | 4° |
| 2026-05-05 11:06 | 49.80681 | -3.75326 | 39994 ft | 445 kts | 5° |
| 2026-05-05 11:07 | 49.86852 | -3.74485 | 40002 ft | 445 kts | 5° |
| 2026-05-05 11:07 | 49.93018 | -3.73713 | 40004 ft | 445 kts | 4° |
| 2026-05-05 11:08 | 49.99194 | -3.72973 | 40001 ft | 445 kts | 4° |
| 2026-05-05 11:08 | 50.05361 | -3.72238 | 40003 ft | 445 kts | 4° |
| 2026-05-05 11:09 | 50.11550 | -3.71497 | 40002 ft | 446 kts | 4° |
| 2026-05-05 11:09 | 50.17736 | -3.70753 | 40001 ft | 446 kts | 4° |
| 2026-05-05 11:10 | 50.23924 | -3.70007 | 40003 ft | 446 kts | 4° |
| 2026-05-05 11:10 | 50.30081 | -3.69262 | 40004 ft | 446 kts | 4° |
| 2026-05-05 11:11 | 50.36320 | -3.68505 | 40005 ft | 447 kts | 4° |
| 2026-05-05 11:11 | 50.42463 | -3.68919 | 40009 ft | 446 kts | 348° |
| 2026-05-05 11:12 | 50.47398 | -3.71431 | 40022 ft | 446 kts | 338° |
| 2026-05-05 11:12 | 50.54085 | -3.75694 | 40008 ft | 446 kts | 337° |
| 2026-05-05 11:13 | 50.58911 | -3.78769 | 40002 ft | 447 kts | 338° |
| 2026-05-05 11:13 | 50.64711 | -3.82414 | 40011 ft | 446 kts | 338° |
| 2026-05-05 11:14 | 50.70447 | -3.85996 | 40010 ft | 446 kts | 338° |
| 2026-05-05 11:14 | 50.76251 | -3.89626 | 40013 ft | 445 kts | 338° |
| 2026-05-05 11:15 | 50.81993 | -3.93228 | 40016 ft | 444 kts | 338° |
| 2026-05-05 11:15 | 50.87759 | -3.96855 | 40015 ft | 444 kts | 338° |
| 2026-05-05 11:16 | 50.93483 | -4.00466 | 40021 ft | 443 kts | 337° |
| 2026-05-05 11:16 | 50.99207 | -4.04087 | 40018 ft | 442 kts | 338° |
| 2026-05-05 11:17 | 51.04794 | -4.07632 | 40022 ft | 442 kts | 338° |
| 2026-05-05 11:17 | 51.09686 | -4.10742 | 40022 ft | 442 kts | 337° |
| 2026-05-05 11:18 | 51.14936 | -4.14087 | 40021 ft | 442 kts | 338° |
| 2026-05-05 11:18 | 51.20644 | -4.17735 | 40025 ft | 442 kts | 338° |
| 2026-05-05 11:19 | 51.26349 | -4.21391 | 40032 ft | 442 kts | 337° |
| 2026-05-05 11:19 | 51.31825 | -4.24908 | 40032 ft | 442 kts | 337° |
| 2026-05-05 11:20 | 51.37439 | -4.28523 | 40031 ft | 442 kts | 337° |
| 2026-05-05 11:20 | 51.43127 | -4.32233 | 40035 ft | 442 kts | 336° |
| 2026-05-05 11:21 | 51.48686 | -4.36392 | 40031 ft | 441 kts | 333° |
| 2026-05-05 11:21 | 51.54205 | -4.40692 | 40042 ft | 440 kts | 333° |
| 2026-05-05 11:22 | 51.59695 | -4.44922 | 40034 ft | 440 kts | 334° |
| 2026-05-05 11:22 | 51.65217 | -4.49151 | 40041 ft | 439 kts | 334° |
| 2026-05-05 11:23 | 51.70736 | -4.53387 | 40037 ft | 439 kts | 334° |
| 2026-05-05 11:23 | 51.76195 | -4.57910 | 40034 ft | 437 kts | 325° |
| 2026-05-05 11:24 | 51.80663 | -4.64449 | 39464 ft | 438 kts | 309° |
| 2026-05-05 11:24 | 51.82590 | -4.68258 | 38897 ft | 436 kts | 308° |
| 2026-05-05 11:24 | 51.84479 | -4.72077 | 38193 ft | 435 kts | 308° |
| 2026-05-05 11:24 | 51.86371 | -4.75895 | 37505 ft | 434 kts | 309° |
| 2026-05-05 11:25 | 51.88262 | -4.79678 | 36906 ft | 430 kts | 310° |
| 2026-05-05 11:25 | 51.90138 | -4.83401 | 36458 ft | 424 kts | 310° |
| 2026-05-05 11:25 | 51.91997 | -4.87074 | 35990 ft | 419 kts | 311° |
| 2026-05-05 11:25 | 51.93837 | -4.90706 | 35525 ft | 415 kts | 310° |
| 2026-05-05 11:26 | 51.95653 | -4.94292 | 35066 ft | 410 kts | 310° |
| 2026-05-05 11:26 | 51.97454 | -4.97857 | 34609 ft | 406 kts | 310° |
| 2026-05-05 11:26 | 51.99259 | -5.01435 | 34171 ft | 403 kts | 311° |
| 2026-05-05 11:26 | 52.01171 | -5.04631 | 33660 ft | 397 kts | 321° |
| 2026-05-05 11:27 | 52.03363 | -5.07241 | 33151 ft | 392 kts | 331° |
| 2026-05-05 11:27 | 52.05748 | -5.09244 | 32702 ft | 387 kts | 336° |
| 2026-05-05 11:27 | 52.07769 | -5.10814 | 32326 ft | 384 kts | 336° |
| 2026-05-05 11:27 | 52.10007 | -5.12564 | 31926 ft | 380 kts | 335° |
| 2026-05-05 11:28 | 52.12369 | -5.14450 | 31508 ft | 377 kts | 335° |
| 2026-05-05 11:28 | 52.14300 | -5.16010 | 31174 ft | 374 kts | 335° |
| 2026-05-05 11:28 | 52.16616 | -5.17899 | 30790 ft | 370 kts | 335° |
| 2026-05-05 11:28 | 52.18738 | -5.19642 | 30423 ft | 367 kts | 334° |
| 2026-05-05 11:29 | 52.20716 | -5.21269 | 30080 ft | 365 kts | 333° |
| 2026-05-05 11:29 | 52.22819 | -5.23002 | 29650 ft | 362 kts | 333° |
| 2026-05-05 11:29 | 52.25041 | -5.24833 | 29245 ft | 357 kts | 333° |
| 2026-05-05 11:29 | 52.27250 | -5.26654 | 28843 ft | 353 kts | 333° |
| 2026-05-05 11:30 | 52.29432 | -5.28455 | 28424 ft | 350 kts | 333° |
| 2026-05-05 11:30 | 52.31585 | -5.30233 | 28027 ft | 347 kts | 333° |
| 2026-05-05 11:30 | 52.33730 | -5.32006 | 27627 ft | 346 kts | 333° |
| 2026-05-05 11:30 | 52.35882 | -5.33787 | 27222 ft | 346 kts | 333° |
| 2026-05-05 11:31 | 52.38048 | -5.35581 | 26842 ft | 353 kts | 333° |
| 2026-05-05 11:31 | 52.40263 | -5.37417 | 26449 ft | 359 kts | 333° |
| 2026-05-05 11:31 | 52.42487 | -5.39261 | 26032 ft | 356 kts | 332° |
| 2026-05-05 11:31 | 52.44683 | -5.41082 | 25632 ft | 352 kts | 332° |
| 2026-05-05 11:32 | 52.46862 | -5.42891 | 25240 ft | 349 kts | 332° |
| 2026-05-05 11:32 | 52.49015 | -5.44680 | 24845 ft | 345 kts | 332° |
| 2026-05-05 11:32 | 52.51144 | -5.46451 | 24465 ft | 342 kts | 332° |
| 2026-05-05 11:32 | 52.53262 | -5.48214 | 24081 ft | 339 kts | 332° |
| 2026-05-05 11:33 | 52.55360 | -5.49950 | 23702 ft | 337 kts | 333° |
| 2026-05-05 11:33 | 52.57543 | -5.51338 | 23272 ft | 335 kts | 340° |
| 2026-05-05 11:33 | 52.59771 | -5.52429 | 22871 ft | 332 kts | 342° |
| 2026-05-05 11:33 | 52.61980 | -5.53465 | 22493 ft | 328 kts | 342° |
| 2026-05-05 11:34 | 52.64159 | -5.54513 | 22110 ft | 325 kts | 341° |
| 2026-05-05 11:34 | 52.66313 | -5.55586 | 21727 ft | 322 kts | 340° |
| 2026-05-05 11:34 | 52.68450 | -5.56675 | 21352 ft | 319 kts | 340° |
| 2026-05-05 11:34 | 52.70564 | -5.57760 | 20992 ft | 317 kts | 340° |
| 2026-05-05 11:35 | 52.72659 | -5.58839 | 20643 ft | 314 kts | 340° |
| 2026-05-05 11:35 | 52.74734 | -5.59909 | 20290 ft | 311 kts | 340° |
| 2026-05-05 11:35 | 52.76795 | -5.60974 | 19943 ft | 309 kts | 340° |
| 2026-05-05 11:35 | 52.78837 | -5.62029 | 19587 ft | 307 kts | 340° |
| 2026-05-05 11:36 | 52.80885 | -5.63090 | 19239 ft | 310 kts | 340° |
| 2026-05-05 11:36 | 52.82959 | -5.64165 | 18887 ft | 314 kts | 340° |
| 2026-05-05 11:36 | 52.85063 | -5.65258 | 18523 ft | 319 kts | 340° |
| 2026-05-05 11:36 | 52.87184 | -5.66359 | 18111 ft | 319 kts | 341° |
| 2026-05-05 11:37 | 52.89296 | -5.67455 | 17696 ft | 316 kts | 340° |
| 2026-05-05 11:37 | 52.91382 | -5.68538 | 17307 ft | 312 kts | 340° |
| 2026-05-05 11:37 | 52.93441 | -5.69608 | 16930 ft | 308 kts | 341° |
| 2026-05-05 11:37 | 52.95476 | -5.70668 | 16566 ft | 305 kts | 341° |
| 2026-05-05 11:38 | 52.97488 | -5.71718 | 16204 ft | 301 kts | 340° |
| 2026-05-05 11:38 | 52.99475 | -5.72755 | 15852 ft | 298 kts | 340° |
| 2026-05-05 11:38 | 53.01439 | -5.73782 | 15504 ft | 295 kts | 341° |
| 2026-05-05 11:38 | 53.03387 | -5.74801 | 15154 ft | 292 kts | 341° |
| 2026-05-05 11:39 | 53.05323 | -5.75815 | 14814 ft | 290 kts | 341° |
| 2026-05-05 11:39 | 53.07236 | -5.76816 | 14474 ft | 287 kts | 341° |
| 2026-05-05 11:39 | 53.09131 | -5.77810 | 14138 ft | 285 kts | 341° |
| 2026-05-05 11:39 | 53.11018 | -5.78800 | 13783 ft | 283 kts | 341° |
| 2026-05-05 11:40 | 53.12814 | -5.80059 | 13377 ft | 280 kts | 323° |
| 2026-05-05 11:40 | 53.14140 | -5.82381 | 13034 ft | 277 kts | 302° |
| 2026-05-05 11:40 | 53.14982 | -5.85245 | 12692 ft | 274 kts | 294° |
| 2026-05-05 11:40 | 53.15733 | -5.88150 | 12343 ft | 272 kts | 294° |
| 2026-05-05 11:41 | 53.16469 | -5.91042 | 12002 ft | 270 kts | 294° |
| 2026-05-05 11:41 | 53.17201 | -5.93908 | 11683 ft | 268 kts | 294° |
| 2026-05-05 11:41 | 53.17930 | -5.96748 | 11361 ft | 266 kts | 294° |
| 2026-05-05 11:41 | 53.18657 | -5.99568 | 11040 ft | 264 kts | 294° |
| 2026-05-05 11:42 | 53.19380 | -6.02369 | 10717 ft | 262 kts | 294° |
| 2026-05-05 11:42 | 53.20100 | -6.05157 | 10404 ft | 262 kts | 294° |
| 2026-05-05 11:42 | 53.20828 | -6.07970 | 10198 ft | 264 kts | 294° |
| 2026-05-05 11:42 | 53.21556 | -6.10786 | 10010 ft | 267 kts | 294° |
| 2026-05-05 11:43 | 53.22296 | -6.13645 | 9644 ft | 267 kts | 294° |
| 2026-05-05 11:43 | 53.23025 | -6.16476 | 9305 ft | 264 kts | 294° |
| 2026-05-05 11:43 | 53.23747 | -6.19276 | 8979 ft | 262 kts | 294° |
| 2026-05-05 11:43 | 53.24463 | -6.22062 | 8663 ft | 259 kts | 294° |
| 2026-05-05 11:44 | 53.25169 | -6.24812 | 8348 ft | 257 kts | 295° |
| 2026-05-05 11:44 | 53.25871 | -6.27547 | 8039 ft | 256 kts | 295° |
| 2026-05-05 11:44 | 53.26571 | -6.30277 | 7727 ft | 254 kts | 295° |
| 2026-05-05 11:44 | 53.27263 | -6.32980 | 7430 ft | 253 kts | 295° |
| 2026-05-05 11:45 | 53.27943 | -6.35645 | 7296 ft | 245 kts | 295° |
| 2026-05-05 11:45 | 53.28553 | -6.38101 | 7174 ft | 243 kts | 290° |
| 2026-05-05 11:45 | 53.28644 | -6.40914 | 7092 ft | 247 kts | 258° |
| 2026-05-05 11:45 | 53.27852 | -6.43417 | 7086 ft | 245 kts | 231° |
| 2026-05-05 11:46 | 53.26571 | -6.45296 | 7090 ft | 245 kts | 220° |
| 2026-05-05 11:46 | 53.25221 | -6.47046 | 7072 ft | 246 kts | 220° |
| 2026-05-05 11:46 | 53.23870 | -6.48810 | 7084 ft | 248 kts | 220° |
| 2026-05-05 11:46 | 53.22507 | -6.50598 | 7086 ft | 250 kts | 221° |
| 2026-05-05 11:47 | 53.21436 | -6.52805 | 7072 ft | 244 kts | 250° |
| 2026-05-05 11:47 | 53.20853 | -6.55449 | 7083 ft | 243 kts | 253° |
| 2026-05-05 11:47 | 53.20272 | -6.58100 | 7061 ft | 244 kts | 252° |
| 2026-05-05 11:47 | 53.19684 | -6.60737 | 7081 ft | 242 kts | 252° |
| 2026-05-05 11:48 | 53.18511 | -6.66018 | 7057 ft | 241 kts | 256° |
| 2026-05-05 11:48 | 53.18467 | -6.68731 | 7085 ft | 234 kts | 284° |
| 2026-05-05 11:48 | 53.18800 | -6.71397 | 7083 ft | 235 kts | 283° |
| 2026-05-05 11:49 | 53.19105 | -6.74075 | 7074 ft | 236 kts | 283° |
| 2026-05-05 11:49 | 53.19404 | -6.76784 | 7079 ft | 237 kts | 283° |
| 2026-05-05 11:49 | 53.19701 | -6.79497 | 7076 ft | 239 kts | 283° |
| 2026-05-05 11:49 | 53.20025 | -6.82210 | 7067 ft | 238 kts | 290° |
| 2026-05-05 11:50 | 53.20889 | -6.84498 | 7084 ft | 233 kts | 314° |
| 2026-05-05 11:50 | 53.21968 | -6.86515 | 7073 ft | 234 kts | 313° |
| 2026-05-05 11:50 | 53.23045 | -6.88547 | 7073 ft | 234 kts | 313° |
| 2026-05-05 11:50 | 53.24138 | -6.90564 | 7078 ft | 234 kts | 319° |
| 2026-05-05 11:51 | 53.25535 | -6.91749 | 7079 ft | 230 kts | 351° |
| 2026-05-05 11:51 | 53.27125 | -6.91533 | 6986 ft | 234 kts | 19° |
| 2026-05-05 11:51 | 53.28485 | -6.90036 | 6802 ft | 238 kts | 45° |
| 2026-05-05 11:51 | 53.29462 | -6.87781 | 6580 ft | 236 kts | 54° |
| 2026-05-05 11:52 | 53.30337 | -6.85523 | 6349 ft | 232 kts | 55° |
| 2026-05-05 11:52 | 53.31204 | -6.83273 | 6132 ft | 228 kts | 55° |
| 2026-05-05 11:52 | 53.32076 | -6.81024 | 5950 ft | 227 kts | 55° |
| 2026-05-05 11:52 | 53.32930 | -6.78835 | 5765 ft | 228 kts | 54° |
| 2026-05-05 11:53 | 53.33512 | -6.77343 | 5656 ft | 227 kts | 54° |
| 2026-05-05 11:53 | 53.34661 | -6.74414 | 5415 ft | 228 kts | 54° |
| 2026-05-05 11:53 | 53.35527 | -6.72194 | 5223 ft | 228 kts | 55° |
| 2026-05-05 11:53 | 53.36532 | -6.70185 | 5037 ft | 225 kts | 33° |
| 2026-05-05 11:54 | 53.37980 | -6.69305 | 4892 ft | 222 kts | 8° |
| 2026-05-05 11:54 | 53.39513 | -6.69021 | 4716 ft | 221 kts | 4° |
| 2026-05-05 11:54 | 53.40547 | -6.68880 | 4593 ft | 221 kts | 4° |
| 2026-05-05 11:54 | 53.42070 | -6.68668 | 4400 ft | 218 kts | 4° |
| 2026-05-05 11:55 | 53.43568 | -6.68457 | 4228 ft | 212 kts | 5° |
| 2026-05-05 11:55 | 53.44892 | -6.67534 | 4051 ft | 210 kts | 44° |
| 2026-05-05 11:55 | 53.45476 | -6.65384 | 3915 ft | 211 kts | 79° |
| 2026-05-05 11:55 | 53.45563 | -6.62962 | 3770 ft | 205 kts | 85° |
| 2026-05-05 11:56 | 53.45565 | -6.60617 | 3587 ft | 196 kts | 90° |
| 2026-05-05 11:56 | 53.45446 | -6.58399 | 3475 ft | 186 kts | 93° |
| 2026-05-05 11:56 | 53.45314 | -6.56250 | 3302 ft | 184 kts | 92° |
| 2026-05-05 11:56 | 53.45191 | -6.54151 | 3154 ft | 179 kts | 92° |
| 2026-05-05 11:57 | 53.45071 | -6.52101 | 3038 ft | 172 kts | 92° |
| 2026-05-05 11:57 | 53.44958 | -6.50157 | 2881 ft | 163 kts | 92° |
| 2026-05-05 11:57 | 53.44852 | -6.48305 | 2677 ft | 157 kts | 92° |
| 2026-05-05 11:57 | 53.44748 | -6.46473 | 2490 ft | 160 kts | 92° |
| 2026-05-05 11:58 | 53.44644 | -6.44631 | 2246 ft | 154 kts | 91° |
| 2026-05-05 11:58 | 53.44546 | -6.42928 | 2084 ft | 138 kts | 91° |
| 2026-05-05 11:58 | 53.44440 | -6.41347 | 2031 ft | 134 kts | 94° |
| 2026-05-05 11:58 | 53.44320 | -6.39805 | 1930 ft | 134 kts | 93° |
| 2026-05-05 11:59 | 53.44225 | -6.38271 | 1764 ft | 134 kts | 90° |
| 2026-05-05 11:59 | 53.44167 | -6.36711 | 1452 ft | 133 kts | 89° |
| 2026-05-05 11:59 | 53.44100 | -6.35161 | 1177 ft | 130 kts | 89° |
| 2026-05-05 11:59 | 53.44037 | -6.33677 | 988 ft | 127 kts | 91° |
| 2026-05-05 12:00 | 53.43949 | -6.32211 | 779 ft | 126 kts | 91° |
| 2026-05-05 12:00 | 53.43868 | -6.30766 | 521 ft | 125 kts | 91° |
| 2026-05-05 12:00 | 53.43794 | -6.29341 | 346 ft | 120 kts | 92° |
| 2026-05-05 12:00 | 53.43714 | -6.27969 | 237 ft | 115 kts | 92° |
| 2026-05-05 12:01 | 53.43665 | -6.26986 | 228 ft | 74 kts | 98° |
| 2026-05-05 12:01 | 53.43631 | -6.26493 | 230 ft | 13 kts | 95° |
| 2026-05-05 12:01 | 53.43627 | -6.26414 | 228 ft | 12 kts | 94° |
| 2026-05-05 12:01 | 53.43618 | -6.26218 | 227 ft | 19 kts | 94° |
| 2026-05-05 12:02 | 53.43604 | -6.25975 | 226 ft | 21 kts | 96° |
| 2026-05-05 12:02 | 53.43592 | -6.25835 | 226 ft | 9 kts | 110° |
| 2026-05-05 12:02 | 53.43541 | -6.25783 | 226 ft | 9 kts | 157° |
| 2026-05-05 12:02 | 53.43484 | -6.25743 | 224 ft | 9 kts | 156° |
| 2026-05-05 12:03 | 53.43428 | -6.25700 | 224 ft | 9 kts | 156° |
| 2026-05-05 12:03 | 53.43373 | -6.25661 | 226 ft | 8 kts | 157° |
| 2026-05-05 12:03 | 53.43323 | -6.25627 | 224 ft | 8 kts | 158° |
| 2026-05-05 12:03 | 53.43272 | -6.25595 | 224 ft | 8 kts | 165° |
| 2026-05-05 12:04 | 53.43220 | -6.25567 | 225 ft | 8 kts | 158° |
| 2026-05-05 12:04 | 53.43171 | -6.25533 | 226 ft | 7 kts | 156° |
| 2026-05-05 12:04 | 53.43124 | -6.25498 | 224 ft | 7 kts | 155° |
| 2026-05-05 12:04 | 53.43078 | -6.25465 | 224 ft | 7 kts | 156° |
| 2026-05-05 12:05 | 53.43030 | -6.25429 | 224 ft | 9 kts | 156° |
| 2026-05-05 12:05 | 53.42961 | -6.25379 | 224 ft | 13 kts | 155° |
| 2026-05-05 12:05 | 53.42879 | -6.25303 | 226 ft | 13 kts | 156° |
| 2026-05-05 12:05 | 53.42805 | -6.25231 | 225 ft | 12 kts | 123° |
| 2026-05-05 12:06 | 53.42795 | -6.25106 | 224 ft | 12 kts | 93° |
| 2026-05-05 12:06 | 53.42748 | -6.25011 | 224 ft | 11 kts | 149° |
| 2026-05-05 12:06 | 53.42686 | -6.24944 | 224 ft | 8 kts | 147° |
| 2026-05-05 12:06 | 53.42664 | -6.24894 | 225 ft | 5 kts | 97° |
| 2026-05-05 12:07 | 53.42679 | -6.24837 | 224 ft | 5 kts | 56° |
| 2026-05-05 12:07 | 53.42701 | -6.24787 | 225 ft | 5 kts | 53° |
| 2026-05-05 12:07 | 53.42719 | -6.24735 | 225 ft | 5 kts | 68° |
| 2026-05-05 12:07 | 53.42728 | -6.24697 | 224 ft | 2 kts | 76° |
| 2026-05-05 12:08 | 53.42720 | -6.24674 | 226 ft | 2 kts | 137° |
| 2026-05-05 12:08 | 53.42707 | -6.24662 | 224 ft | 2 kts | 155° |
| 2026-05-05 12:08 | 53.42694 | -6.24653 | 224 ft | 2 kts | 158° |
| 2026-05-05 12:08 | 53.42681 | -6.24644 | 226 ft | 2 kts | 156° |
| 2026-05-05 12:09 | 53.42669 | -6.24635 | 224 ft | 2 kts | 155° |
| 2026-05-05 12:09 | 53.42666 | -6.24632 | 224 ft | 0 kts | 155° |